Time;durP1;ratioP1;P1;durP2;ratioP2;P2;SDS_P1;SDS_P2;PMS_P1;PMS_P2;Temp;Humidity;BMP_temperature;BMP_pressure;BME280_temperature;BME280_humidity;BME280_pressure;Samples;Min_cycle;Max_cycle;Signal;HPM_P1;HPM_P2
2021/12/12 00:00:33;;;;;;;7.40;6.60;;;;;;;5.89;64.65;97413.34;5054198;28;20441;-73
2021/12/12 00:03:03;;;;;;;8.97;6.00;;;;;;;5.96;64.82;97409.31;5073998;28;20507;-73
2021/12/12 00:05:41;;;;;;;12.03;6.90;;;;;;;5.88;65.06;97413.44;5075054;28;20505;-73
2021/12/12 00:08:07;;;;;;;6.97;5.77;;;;;;;5.87;64.53;97420.41;5075115;28;20420;-73
2021/12/12 00:10:35;;;;;;;7.63;6.03;;;;;;;5.63;65.02;97418.75;5064728;28;20426;-74
2021/12/12 00:13:07;;;;;;;8.50;6.20;;;;;;;5.83;64.37;97413.78;5029244;28;20490;-72
2021/12/12 00:15:33;;;;;;;7.77;6.17;;;;;;;5.65;65.00;97416.84;5065800;28;20457;-71
2021/12/12 00:17:59;;;;;;;7.50;6.10;;;;;;;5.57;65.18;97424.38;5074625;28;20507;-72
2021/12/12 00:20:26;;;;;;;6.53;5.87;;;;;;;5.90;64.02;97429.75;5067748;28;20461;-73
2021/12/12 00:22:55;;;;;;;9.70;6.53;;;;;;;5.76;64.59;97436.84;5068558;28;20427;-71
2021/12/12 00:25:21;;;;;;;8.80;5.77;;;;;;;5.63;64.19;97439.53;5062431;28;20479;-73
2021/12/12 00:27:47;;;;;;;7.63;6.30;;;;;;;5.80;64.80;97432.22;5072736;28;20481;-72
2021/12/12 00:30:13;;;;;;;10.00;6.40;;;;;;;5.99;63.51;97429.91;5073637;28;20420;-73
2021/12/12 00:32:40;;;;;;;10.93;7.77;;;;;;;5.87;63.72;97425.63;5072340;28;20433;-72
2021/12/12 00:35:12;;;;;;;7.70;6.37;;;;;;;5.96;63.92;97434.50;5074899;28;20441;-73
2021/12/12 00:37:38;;;;;;;9.90;6.30;;;;;;;5.65;64.68;97440.25;5075699;28;20454;-73
2021/12/12 00:40:37;;;;;;;8.87;7.27;;;;;;;5.49;65.18;97443.16;5071684;28;20421;-71
2021/12/12 00:43:09;;;;;;;13.57;9.00;;;;;;;5.57;65.61;97447.78;5063747;28;20480;-71
2021/12/12 00:45:34;;;;;;;13.37;8.60;;;;;;;5.72;65.12;97442.38;5072579;28;20468;-72
2021/12/12 00:48:00;;;;;;;11.50;8.20;;;;;;;5.50;65.10;97447.41;5073880;28;20424;-71
2021/12/12 00:50:35;;;;;;;10.57;7.60;;;;;;;5.47;65.50;97450.28;5065657;28;20197;-72
2021/12/12 00:53:03;;;;;;;9.57;7.40;;;;;;;5.57;66.00;97455.59;5083978;28;20204;-72
2021/12/12 00:55:29;;;;;;;10.97;7.77;;;;;;;5.41;66.04;97457.69;5056955;28;20448;-72
2021/12/12 00:57:55;;;;;;;10.90;8.10;;;;;;;5.50;65.71;97455.22;5064274;28;20424;-73
2021/12/12 01:00:24;;;;;;;12.63;7.87;;;;;;;5.77;65.03;97456.69;5057162;28;20764;-72
2021/12/12 01:02:51;;;;;;;10.47;7.43;;;;;;;5.48;65.58;97464.09;5057698;28;20214;-74
2021/12/12 01:05:17;;;;;;;10.27;7.60;;;;;;;5.38;65.60;97462.19;5075445;28;20465;-72
2021/12/12 01:07:45;;;;;;;10.50;7.93;;;;;;;5.48;66.23;97474.47;5077331;28;20433;-73
2021/12/12 01:10:17;;;;;;;13.10;8.43;;;;;;;5.47;65.98;97475.44;5062119;28;20493;-72
2021/12/12 01:12:43;;;;;;;14.43;7.80;;;;;;;5.56;65.58;97476.53;5075699;28;20558;-72
2021/12/12 01:15:19;;;;;;;14.07;8.40;;;;;;;5.29;66.48;97481.06;5040101;28;20501;-71
2021/12/12 01:17:48;;;;;;;10.03;7.13;;;;;;;5.26;67.05;97480.41;5054287;28;20191;-71
2021/12/12 01:20:31;;;;;;;8.37;6.63;;;;;;;5.38;66.64;97488.16;5064559;28;20463;-72
2021/12/12 01:23:23;;;;;;;11.10;7.37;;;;;;;5.37;66.84;97494.31;5068051;28;20435;-72
2021/12/12 01:25:51;;;;;;;8.73;6.37;;;;;;;5.18;67.04;97494.81;5071878;28;20958;-72
2021/12/12 01:28:21;;;;;;;9.03;6.77;;;;;;;5.19;66.97;97490.44;5071035;28;20421;-71
2021/12/12 01:30:48;;;;;;;8.27;7.17;;;;;;;4.81;68.09;97481.88;5072706;28;20723;-72
2021/12/12 01:33:21;;;;;;;8.73;6.97;;;;;;;4.87;68.94;97483.22;5073319;28;20429;-72
2021/12/12 01:35:47;;;;;;;10.37;7.43;;;;;;;5.11;67.15;97484.97;5071708;28;20468;-72
2021/12/12 01:40:58;;;;;;;11.00;7.67;;;;;;;4.98;66.90;97483.25;5067101;28;20486;-71
2021/12/12 01:43:54;;;;;;;9.93;7.07;;;;;;;5.31;66.15;97481.75;5069580;28;20420;-73
2021/12/12 01:46:26;;;;;;;11.83;6.00;;;;;;;4.91;65.76;97484.66;5069039;28;20536;-72
2021/12/12 01:48:57;;;;;;;12.37;5.80;;;;;;;4.79;64.71;97480.34;5070623;28;20432;-70
2021/12/12 01:51:24;;;;;;;7.40;6.43;;;;;;;4.89;65.36;97486.53;5069898;28;20440;-72
2021/12/12 01:53:52;;;;;;;10.00;7.00;;;;;;;4.91;65.82;97484.66;5062932;28;20805;-72
2021/12/12 01:56:29;;;;;;;7.77;6.20;;;;;;;4.98;65.65;97485.88;5070015;28;20455;-71
2021/12/12 01:58:59;;;;;;;11.23;7.90;;;;;;;5.29;65.25;97493.19;5070013;28;20531;-70
2021/12/12 02:01:46;;;;;;;9.90;7.20;;;;;;;5.45;64.37;97493.75;5069366;28;20424;-70
2021/12/12 02:04:19;;;;;;;9.50;7.07;;;;;;;5.31;64.74;97493.94;5062947;28;20463;-72
2021/12/12 02:06:46;;;;;;;9.10;6.30;;;;;;;4.78;65.02;97495.06;5068445;28;20441;-73
2021/12/12 02:09:13;;;;;;;7.90;6.40;;;;;;;5.31;63.94;97489.53;5069752;28;20802;-72
2021/12/12 02:11:42;;;;;;;8.33;6.40;;;;;;;5.28;62.41;97497.59;5069439;28;20433;-72
2021/12/12 02:14:12;;;;;;;9.20;6.17;;;;;;;4.98;63.53;97496.25;5064630;28;20435;-73
2021/12/12 02:16:42;;;;;;;10.90;5.70;;;;;;;5.62;62.64;97500.28;5071002;28;20773;-72
2021/12/12 02:19:09;;;;;;;10.63;6.03;;;;;;;5.45;62.14;97501.53;5066398;28;20807;-71
2021/12/12 02:21:55;;;;;;;8.20;6.77;;;;;;;5.52;62.87;97504.53;5064167;28;20430;-72
2021/12/12 02:35:36;;;;;;;7.00;6.30;;;;;;;5.31;62.67;97522.50;5061379;28;20950;-72
2021/12/12 02:38:03;;;;;;;6.97;5.90;;;;;;;5.47;62.92;97517.03;5074883;28;20421;-72
2021/12/12 02:40:34;;;;;;;7.30;6.60;;;;;;;5.33;63.41;97520.63;5071093;28;20424;-70
2021/12/12 02:43:00;;;;;;;10.17;7.30;;;;;;;5.58;62.54;97511.84;5065741;28;20420;-70
2021/12/12 02:45:29;;;;;;;11.13;6.80;;;;;;;5.77;61.98;97513.09;5051335;28;20469;-71
2021/12/12 02:48:00;;;;;;;7.23;6.40;;;;;;;5.50;62.46;97522.00;5077135;28;20425;-72
2021/12/12 02:50:30;;;;;;;13.93;6.40;;;;;;;5.21;63.18;97518.00;5078508;28;20442;-74
2021/12/12 02:53:11;;;;;;;9.50;6.00;;;;;;;4.98;64.03;97511.03;5077799;28;20424;-71
2021/12/12 02:55:40;;;;;;;9.23;6.07;;;;;;;5.29;63.24;97514.84;5073531;28;20439;-73
2021/12/12 02:58:10;;;;;;;9.37;7.43;;;;;;;5.50;62.58;97511.59;5074611;28;20454;-71
2021/12/12 03:00:43;;;;;;;10.43;6.77;;;;;;;5.36;62.91;97505.66;5066336;28;20507;-72
2021/12/12 03:03:11;;;;;;;10.23;6.37;;;;;;;5.46;61.97;97511.00;5057795;28;20470;-72
2021/12/12 03:05:44;;;;;;;8.47;6.03;;;;;;;5.61;61.85;97496.03;5075015;28;20472;-71
2021/12/12 03:08:11;;;;;;;8.70;5.80;;;;;;;5.69;61.80;97498.88;5075423;28;20449;-71
2021/12/12 03:10:40;;;;;;;7.67;6.07;;;;;;;5.64;61.57;97488.00;5076079;28;20515;-73
2021/12/12 03:13:06;;;;;;;9.73;6.73;;;;;;;5.72;61.15;97484.00;5066550;28;20818;-70
2021/12/12 03:15:38;;;;;;;6.83;5.63;;;;;;;5.69;61.59;97485.88;5069356;28;20536;-72
2021/12/12 03:18:06;;;;;;;8.33;6.57;;;;;;;5.66;61.24;97480.94;5058983;28;20452;-72
2021/12/12 03:20:41;;;;;;;9.03;5.90;;;;;;;5.64;61.01;97498.41;5073979;28;20416;-72
2021/12/12 03:23:19;;;;;;;8.67;6.03;;;;;;;5.58;61.39;97504.06;5062736;28;20823;-72
2021/12/12 03:25:46;;;;;;;9.57;6.13;;;;;;;5.35;61.92;97498.78;5062308;28;20465;-72
2021/12/12 03:28:17;;;;;;;11.33;6.40;;;;;;;5.35;61.68;97488.38;5074187;28;20432;-71
2021/12/12 03:30:44;;;;;;;7.90;6.20;;;;;;;5.38;61.59;97482.13;5073057;28;20432;-71
2021/12/12 03:33:09;;;;;;;10.37;7.00;;;;;;;5.36;62.10;97495.25;5073606;28;20484;-72
2021/12/12 03:35:35;;;;;;;7.17;6.20;;;;;;;5.31;61.78;97499.94;5072818;28;20547;-72
2021/12/12 03:38:02;;;;;;;8.30;5.33;;;;;;;5.28;61.67;97492.38;5069716;28;20209;-72
2021/12/12 03:40:33;;;;;;;9.03;6.63;;;;;;;5.23;62.28;97504.88;5068736;28;20190;-72
2021/12/12 03:43:00;;;;;;;6.83;5.93;;;;;;;4.85;63.06;97503.25;5064757;28;20425;-71
2021/12/12 03:45:27;;;;;;;8.13;6.60;;;;;;;4.60;65.03;97518.78;5072595;28;20499;-72
2021/12/12 03:47:57;;;;;;;6.93;6.10;;;;;;;4.72;64.72;97517.09;5072169;28;20440;-71
2021/12/12 03:50:26;;;;;;;12.27;7.07;;;;;;;4.86;63.79;97517.91;5073286;28;20421;-72
2021/12/12 03:52:53;;;;;;;10.30;6.50;;;;;;;4.75;63.72;97522.09;5072537;28;20483;-72
2021/12/12 03:55:19;;;;;;;8.27;6.90;;;;;;;4.92;63.27;97514.84;5065941;28;20447;-72
2021/12/12 03:57:47;;;;;;;6.80;5.20;;;;;;;4.76;63.96;97515.97;5073361;28;20440;-71
2021/12/12 04:00:20;;;;;;;9.97;6.77;;;;;;;4.92;63.53;97507.91;5073226;28;20436;-71
2021/12/12 04:02:46;;;;;;;8.57;6.50;;;;;;;5.02;63.10;97507.25;5074020;28;20511;-70
2021/12/12 04:05:12;;;;;;;11.03;6.77;;;;;;;4.96;62.69;97510.28;5073857;28;20552;-71
2021/12/12 04:07:38;;;;;;;9.03;6.47;;;;;;;5.02;63.03;97518.47;5041993;28;20687;-69
2021/12/12 04:10:06;;;;;;;9.40;6.30;;;;;;;5.00;62.37;97515.16;5050376;28;20441;-71
2021/12/12 04:12:32;;;;;;;6.70;6.00;;;;;;;4.98;62.51;97511.84;5055320;28;20523;-71
2021/12/12 04:14:58;;;;;;;8.97;6.20;;;;;;;4.96;62.58;97508.50;5051882;28;20517;-70
2021/12/12 04:17:27;;;;;;;7.30;6.07;;;;;;;4.96;63.05;97512.91;5060663;28;20827;-71
2021/12/12 04:19:56;;;;;;;8.73;5.97;;;;;;;4.94;62.50;97514.78;5052850;28;20274;-71
2021/12/12 04:22:21;;;;;;;11.70;6.77;;;;;;;4.91;63.50;97521.03;5058870;28;20505;-71
2021/12/12 04:24:51;;;;;;;12.17;6.03;;;;;;;4.85;62.56;97519.66;5062332;28;20464;-72
2021/12/12 04:27:18;;;;;;;10.40;6.77;;;;;;;4.82;62.70;97514.69;5066400;28;20183;-72
2021/12/12 04:29:48;;;;;;;9.93;6.50;;;;;;;4.75;63.51;97522.09;5050635;28;20512;-73
2021/12/12 04:32:19;;;;;;;8.07;6.30;;;;;;;4.74;63.12;97525.63;5052876;28;20422;-72
2021/12/12 04:34:51;;;;;;;6.60;5.70;;;;;;;4.64;63.77;97528.97;5050440;28;20426;-70
2021/12/12 04:37:18;;;;;;;8.97;6.70;;;;;;;4.60;63.71;97536.97;5052649;28;20500;-71
2021/12/12 04:39:48;;;;;;;7.57;6.07;;;;;;;4.57;63.50;97546.72;5050921;28;20835;-70
2021/12/12 04:42:19;;;;;;;6.00;5.33;;;;;;;4.54;64.26;97552.13;5064223;28;20839;-71
2021/12/12 04:44:52;;;;;;;7.17;5.70;;;;;;;4.50;63.92;97546.31;5055766;28;20450;-72
2021/12/12 04:50:17;;;;;;;8.90;5.37;;;;;;;4.43;63.87;97545.91;5044807;28;20421;-72
2021/12/12 04:52:48;;;;;;;6.97;5.43;;;;;;;4.45;64.14;97559.63;5052148;28;20516;-71
2021/12/12 04:55:35;;;;;;;6.57;5.50;;;;;;;4.37;64.27;97556.72;5056533;28;20437;-70
2021/12/12 04:58:05;;;;;;;6.70;5.27;;;;;;;4.31;63.75;97559.72;5050346;28;20425;-71
2021/12/12 05:00:46;;;;;;;10.63;5.63;;;;;;;4.27;64.04;97561.72;5050378;28;20426;-71
2021/12/12 05:03:25;;;;;;;8.00;5.10;;;;;;;4.24;64.27;97556.72;5050463;28;20521;-70
2021/12/12 05:06:03;;;;;;;7.53;5.60;;;;;;;4.24;63.73;97561.91;5051483;28;20971;-71
2021/12/12 05:08:36;;;;;;;8.50;5.20;;;;;;;4.19;64.21;97565.75;5050558;28;20431;-69
2021/12/12 05:11:14;;;;;;;7.70;5.23;;;;;;;4.06;64.24;97566.56;5043862;28;20431;-71
2021/12/12 05:13:49;;;;;;;7.53;4.70;;;;;;;4.02;65.05;97562.53;5061684;28;20422;-70
2021/12/12 05:16:24;;;;;;;6.70;5.20;;;;;;;4.06;65.20;97561.38;5049880;28;20436;-70
2021/12/12 05:18:53;;;;;;;7.67;5.63;;;;;;;4.10;64.33;97560.25;5051421;28;20425;-71
2021/12/12 05:21:26;;;;;;;7.93;5.00;;;;;;;4.09;64.04;97561.19;5049841;28;20438;-71
2021/12/12 05:23:56;;;;;;;8.07;5.53;;;;;;;3.80;65.02;97563.94;5051582;28;20453;-70
2021/12/12 05:26:29;;;;;;;7.50;4.93;;;;;;;4.03;64.49;97572.00;5058336;28;20438;-72
2021/12/12 05:29:05;;;;;;;5.83;4.43;;;;;;;3.93;64.88;97568.31;5050121;28;20512;-70
2021/12/12 05:31:32;;;;;;;8.90;6.13;;;;;;;3.99;64.57;97575.72;5053054;28;20421;-70
2021/12/12 05:33:57;;;;;;;6.03;4.97;;;;;;;3.83;64.88;97566.34;5057287;28;20758;-70
2021/12/12 05:36:23;;;;;;;6.40;5.63;;;;;;;4.00;64.47;97567.81;5051293;28;20453;-70
2021/12/12 05:38:50;;;;;;;7.93;5.90;;;;;;;3.91;64.38;97557.22;5049764;28;20436;-70
2021/12/12 05:41:18;;;;;;;8.07;6.10;;;;;;;3.93;64.67;97560.53;5047272;28;20456;-70
2021/12/12 05:43:46;;;;;;;9.83;5.90;;;;;;;3.84;64.52;97565.41;5050806;28;20421;-70
2021/12/12 05:46:15;;;;;;;9.97;5.73;;;;;;;4.05;63.99;97564.09;5050136;28;20586;-71
2021/12/12 05:48:43;;;;;;;10.97;6.27;;;;;;;4.09;64.19;97571.56;5051545;28;20461;-71
2021/12/12 05:51:09;;;;;;;8.97;6.10;;;;;;;4.05;63.81;97562.31;5061215;28;20424;-70
2021/12/12 05:53:35;;;;;;;7.43;5.70;;;;;;;4.05;64.77;97558.91;5053860;28;20426;-70
2021/12/12 05:56:00;;;;;;;6.70;5.30;;;;;;;4.13;64.16;97557.47;5036769;28;20494;-69
2021/12/12 05:58:26;;;;;;;6.67;5.47;;;;;;;4.21;63.53;97558.69;5050852;28;20187;-69
2021/12/12 06:00:57;;;;;;;5.30;4.60;;;;;;;4.24;63.26;97559.31;5050613;28;20537;-71
2021/12/12 06:03:26;;;;;;;6.20;5.17;;;;;;;4.24;63.75;97558.50;5066381;28;20179;-70
2021/12/12 06:05:53;;;;;;;7.83;5.67;;;;;;;4.29;63.70;97561.59;5067586;28;20484;-71
2021/12/12 06:08:21;;;;;;;6.43;5.17;;;;;;;4.30;63.61;97560.66;5069833;28;20428;-70
2021/12/12 06:10:47;;;;;;;6.50;5.23;;;;;;;4.32;63.67;97561.41;5050344;28;20516;-70
2021/12/12 06:13:15;;;;;;;7.50;5.30;;;;;;;4.30;63.65;97568.44;5058099;28;20446;-70
2021/12/12 06:15:45;;;;;;;6.27;5.17;;;;;;;4.29;62.87;97571.97;5053070;28;20483;-72
2021/12/12 06:18:12;;;;;;;9.73;5.80;;;;;;;4.32;63.11;97568.38;5055728;28;20449;-71
2021/12/12 06:20:37;;;;;;;6.63;5.40;;;;;;;4.27;62.92;97579.06;5074284;28;20447;-70
2021/12/12 06:23:03;;;;;;;6.40;5.30;;;;;;;4.26;63.51;97582.59;5072691;28;20462;-70
2021/12/12 06:25:28;;;;;;;8.93;5.70;;;;;;;4.27;63.05;97581.66;5067354;28;20206;-70
2021/12/12 06:27:54;;;;;;;7.53;5.73;;;;;;;4.27;63.13;97584.25;5058536;28;20205;-71
2021/12/12 06:30:22;;;;;;;9.00;5.73;;;;;;;4.30;63.21;97591.81;5042785;28;20171;-70
2021/12/12 06:32:49;;;;;;;6.33;5.27;;;;;;;4.30;62.93;97589.22;5071453;28;20178;-69
2021/12/12 06:35:15;;;;;;;7.00;5.37;;;;;;;4.26;63.19;97598.97;5071201;28;20532;-69
2021/12/12 06:37:42;;;;;;;8.63;5.40;;;;;;;4.17;63.99;97598.75;5047270;28;20421;-70
2021/12/12 06:40:10;;;;;;;7.07;5.47;;;;;;;4.23;64.02;97598.34;5066688;28;20907;-69
2021/12/12 06:42:36;;;;;;;10.40;6.80;;;;;;;4.20;63.95;97599.41;5054240;28;20440;-71
2021/12/12 06:45:03;;;;;;;10.70;7.33;;;;;;;4.18;63.68;97595.22;5064704;28;20450;-70
2021/12/12 06:47:29;;;;;;;7.70;6.90;;;;;;;4.17;63.47;97599.59;5061015;28;20262;-71
2021/12/12 06:49:55;;;;;;;10.20;6.93;;;;;;;4.15;64.27;97604.91;5042955;28;20509;-70
2021/12/12 06:52:21;;;;;;;10.00;6.60;;;;;;;4.09;64.16;97601.88;5064324;28;20263;-70
2021/12/12 06:54:47;;;;;;;11.00;7.37;;;;;;;4.06;63.93;97613.25;5070711;28;20478;-69
2021/12/12 06:57:15;;;;;;;10.40;6.90;;;;;;;4.12;64.41;97607.69;5069495;28;20688;-70
2021/12/12 06:59:42;;;;;;;7.40;5.70;;;;;;;4.12;64.06;97615.47;5064849;28;21031;-70
2021/12/12 07:02:08;;;;;;;12.10;9.70;;;;;;;4.14;64.43;97621.41;5070788;28;20508;-70
2021/12/12 07:04:36;;;;;;;16.00;11.57;;;;;;;4.13;63.61;97624.91;5067605;28;20449;-70
2021/12/12 07:07:05;;;;;;;11.53;8.43;;;;;;;4.16;63.63;97629.06;5070108;28;20432;-70
2021/12/12 07:09:32;;;;;;;9.60;6.80;;;;;;;4.08;63.98;97631.34;5069267;28;20722;-70
2021/12/12 07:12:01;;;;;;;9.20;6.20;;;;;;;4.06;63.87;97617.63;5070475;28;20420;-69
2021/12/12 07:14:27;;;;;;;8.17;6.50;;;;;;;4.06;64.33;97617.63;5070730;28;20420;-69
2021/12/12 07:16:54;;;;;;;9.27;6.03;;;;;;;4.03;64.21;97610.91;5052217;28;20799;-70
2021/12/12 07:19:21;;;;;;;8.90;5.80;;;;;;;4.03;64.02;97613.50;5067375;28;20428;-69
2021/12/12 07:21:46;;;;;;;8.00;5.17;;;;;;;4.03;64.45;97613.50;5056662;28;20439;-70
2021/12/12 07:24:14;;;;;;;12.80;6.30;;;;;;;4.03;64.33;97610.91;5073660;28;20563;-70
2021/12/12 07:26:40;;;;;;;8.27;5.70;;;;;;;3.92;64.30;97615.94;5074321;28;20210;-70
2021/12/12 07:29:05;;;;;;;12.17;6.73;;;;;;;3.86;64.62;97616.34;5072520;28;20466;-70
2021/12/12 07:31:34;;;;;;;7.73;6.23;;;;;;;3.96;64.07;97618.25;5074116;28;20212;-70
2021/12/12 07:34:03;;;;;;;7.60;5.90;;;;;;;3.83;64.63;97618.22;5073872;28;20266;-70
2021/12/12 07:36:33;;;;;;;8.30;5.80;;;;;;;3.97;64.28;97622.47;5059416;28;20532;-69
2021/12/12 07:39:05;;;;;;;7.93;6.00;;;;;;;3.91;64.62;97625.50;5068712;28;20416;-70
2021/12/12 07:41:31;;;;;;;7.57;5.63;;;;;;;4.02;64.75;97622.19;5074370;28;21011;-71
2021/12/12 07:43:58;;;;;;;7.70;5.87;;;;;;;4.04;64.23;97630.69;5073042;28;22305;-70
2021/12/12 07:46:25;;;;;;;7.10;5.23;;;;;;;4.14;64.58;97624.00;5068440;28;20449;-70
2021/12/12 07:48:52;;;;;;;6.50;5.00;;;;;;;4.12;64.06;97622.41;5072640;28;20421;-71
2021/12/12 07:51:20;;;;;;;7.17;5.50;;;;;;;3.95;64.30;97631.31;5066065;28;20420;-71
2021/12/12 07:53:49;;;;;;;6.70;4.97;;;;;;;4.13;63.50;97640.50;5062039;28;20422;-71
2021/12/12 07:56:16;;;;;;;7.07;5.00;;;;;;;4.20;63.58;97629.69;5060684;28;20439;-70
2021/12/12 07:58:41;;;;;;;6.17;4.90;;;;;;;4.17;63.47;97629.88;5072897;28;20826;-70
2021/12/12 08:01:07;;;;;;;4.83;4.33;;;;;;;3.89;64.39;97621.34;5064732;28;20417;-70
2021/12/12 08:03:35;;;;;;;5.73;3.97;;;;;;;4.24;64.47;97623.38;5074801;28;20710;-70
2021/12/12 08:06:01;;;;;;;5.50;4.00;;;;;;;4.41;63.09;97627.44;5073111;28;20725;-69
2021/12/12 08:08:27;;;;;;;4.87;4.20;;;;;;;4.67;62.04;97617.84;5064280;28;20417;-70
2021/12/12 08:10:54;;;;;;;5.20;3.80;;;;;;;4.76;61.54;97619.84;5064537;28;20420;-69
2021/12/12 08:13:20;;;;;;;5.20;4.33;;;;;;;4.63;62.00;97619.03;5067646;28;20430;-70
2021/12/12 08:15:46;;;;;;;5.77;4.60;;;;;;;4.70;61.15;97622.84;5071678;28;20528;-70
2021/12/12 08:18:15;;;;;;;4.93;3.83;;;;;;;4.64;61.41;97620.69;5073596;28;20819;-70
2021/12/12 08:20:40;;;;;;;5.30;4.07;;;;;;;4.42;61.73;97623.91;5065455;28;20441;-69
2021/12/12 08:23:07;;;;;;;4.37;3.97;;;;;;;4.40;61.80;97621.41;5060385;28;21158;-70
2021/12/12 08:25:33;;;;;;;4.27;3.57;;;;;;;4.57;61.22;97624.63;5065209;28;20211;-70
2021/12/12 08:28:01;;;;;;;3.73;3.43;;;;;;;4.87;60.98;97619.09;5054531;28;20985;-70
2021/12/12 08:30:28;;;;;;;4.03;3.63;;;;;;;4.86;61.27;97627.00;5064716;28;20445;-70
2021/12/12 08:32:54;;;;;;;6.50;3.70;;;;;;;4.80;60.29;97627.41;5070495;28;20460;-72
2021/12/12 08:35:22;;;;;;;5.10;4.03;;;;;;;4.91;60.40;97620.53;5070002;28;20529;-71
2021/12/12 08:37:48;;;;;;;3.50;3.20;;;;;;;4.81;60.31;97626.47;5061293;28;20183;-71
2021/12/12 08:40:18;;;;;;;4.20;3.50;;;;;;;4.88;60.41;97614.75;5067104;28;20492;-70
2021/12/12 08:42:48;;;;;;;5.13;3.30;;;;;;;4.90;59.93;97610.28;5064221;28;20448;-70
2021/12/12 08:45:16;;;;;;;3.67;3.33;;;;;;;5.00;59.98;97613.88;5072782;28;20502;-70
2021/12/12 08:47:42;;;;;;;3.93;3.50;;;;;;;5.20;60.00;97609.03;5075168;28;20478;-70
2021/12/12 08:50:12;;;;;;;4.30;3.30;;;;;;;5.19;59.55;97604.78;5064502;28;20417;-71
2021/12/12 08:52:41;;;;;;;3.90;3.50;;;;;;;4.88;59.99;97610.34;5073332;28;20440;-70
2021/12/12 08:55:15;;;;;;;3.93;2.90;;;;;;;5.07;59.57;97616.88;5071372;28;20443;-70
2021/12/12 08:58:14;;;;;;;3.60;3.13;;;;;;;5.04;59.75;97624.88;5070836;28;20885;-71
2021/12/12 09:00:36;;;;;;;2.80;2.50;;;;;;;4.84;59.67;97634.06;5061464;28;20433;-69
2021/12/12 09:03:02;;;;;;;5.07;2.67;;;;;;;4.58;61.04;97642.72;5072872;28;20416;-69
2021/12/12 09:05:32;;;;;;;5.20;3.23;;;;;;;4.38;61.63;97641.44;5072187;28;20971;-70
2021/12/12 09:08:05;;;;;;;3.93;3.10;;;;;;;4.88;59.88;97641.53;5069544;28;20504;-70
2021/12/12 09:10:38;;;;;;;4.83;3.43;;;;;;;4.50;60.60;97634.59;5051678;28;20421;-70
2021/12/12 09:13:10;;;;;;;3.80;3.40;;;;;;;4.67;60.76;97638.63;5064659;28;20523;-70
2021/12/12 09:16:03;;;;;;;4.07;3.67;;;;;;;4.80;59.93;97637.78;5054966;28;20452;-70
2021/12/12 09:18:43;;;;;;;5.27;3.40;;;;;;;4.89;60.02;97637.19;5072969;28;20416;-70
2021/12/12 09:21:26;;;;;;;3.47;2.73;;;;;;;5.18;58.41;97626.50;5057841;28;20554;-69
2021/12/12 09:24:17;;;;;;;4.17;3.03;;;;;;;4.81;58.96;97632.50;5060859;28;20912;-69
2021/12/12 09:26:48;;;;;;;5.90;4.80;;;;;;;4.84;58.72;97634.91;5052900;28;20534;-71
2021/12/12 09:29:37;;;;;;;5.80;4.07;;;;;;;5.08;58.17;97632.34;5052876;28;20661;-70
2021/12/12 09:32:09;;;;;;;5.13;4.00;;;;;;;5.08;58.29;97627.16;5060944;28;21030;-71
2021/12/12 09:34:49;;;;;;;5.03;3.30;;;;;;;5.37;57.59;97629.47;5053206;28;20425;-70
2021/12/12 09:37:21;;;;;;;4.43;2.90;;;;;;;5.31;57.42;97623.88;5055342;28;20444;-69
2021/12/12 09:39:50;;;;;;;4.87;2.97;;;;;;;5.13;57.59;97619.03;5065163;28;21383;-70
2021/12/12 09:42:31;;;;;;;3.90;3.10;;;;;;;5.56;56.63;97619.53;5053154;28;20840;-71
2021/12/12 09:45:07;;;;;;;5.23;2.80;;;;;;;5.29;57.02;97621.41;5066042;28;20472;-71
2021/12/12 09:48:14;;;;;;;4.37;3.07;;;;;;;5.61;56.08;97613.06;5049089;28;20464;-69
2021/12/12 09:51:16;;;;;;;3.50;3.20;;;;;;;5.27;56.49;97623.28;5061364;28;20432;-71
2021/12/12 09:54:06;;;;;;;4.10;3.70;;;;;;;5.46;56.04;97611.56;5069751;28;20463;-71
2021/12/12 09:57:00;;;;;;;3.60;2.90;;;;;;;5.76;54.96;97610.28;5052008;28;20943;-68
2021/12/12 09:59:50;;;;;;;2.73;2.53;;;;;;;6.09;54.91;97613.97;5051974;28;20448;-69
2021/12/12 10:02:41;;;;;;;3.10;2.70;;;;;;;5.96;54.25;97608.81;5051624;28;20919;-70
2021/12/12 10:05:12;;;;;;;4.07;2.67;;;;;;;6.11;53.94;97614.69;5052005;28;20463;-71
2021/12/12 10:08:06;;;;;;;2.70;2.20;;;;;;;6.21;53.75;97605.25;5052589;28;20425;-70
2021/12/12 10:10:37;;;;;;;2.80;2.13;;;;;;;6.55;53.29;97605.28;5070280;28;20994;-71
2021/12/12 10:13:20;;;;;;;2.80;2.43;;;;;;;5.80;54.98;97607.34;5070476;28;20420;-70
2021/12/12 10:15:51;;;;;;;3.73;2.23;;;;;;;6.13;53.75;97598.00;5070227;28;20950;-70
2021/12/12 10:18:49;;;;;;;2.47;2.27;;;;;;;5.95;54.68;97594.97;5059472;28;20434;-69
2021/12/12 10:21:32;;;;;;;3.00;2.60;;;;;;;6.11;54.32;97583.47;5057065;28;20527;-69
2021/12/12 10:24:25;;;;;;;4.07;2.63;;;;;;;5.50;56.16;97590.41;5056301;28;20939;-70
2021/12/12 10:27:13;;;;;;;2.60;2.40;;;;;;;6.18;54.97;97584.66;5068205;28;20955;-69
2021/12/12 10:29:53;;;;;;;3.60;2.63;;;;;;;6.19;53.90;97588.91;5054912;28;20807;-69
2021/12/12 10:32:23;;;;;;;2.80;2.33;;;;;;;6.67;53.22;97589.69;5072566;28;20447;-69
2021/12/12 10:35:00;;;;;;;3.77;3.37;;;;;;;6.20;54.58;97590.56;5051844;28;20846;-70
2021/12/12 10:37:37;;;;;;;4.40;2.50;;;;;;;6.13;54.38;97586.78;5069646;28;20433;-70
2021/12/12 10:40:15;;;;;;;3.70;2.87;;;;;;;5.98;54.56;97593.94;5056278;28;20498;-70
2021/12/12 10:42:47;;;;;;;4.43;2.23;;;;;;;6.46;54.12;97592.97;5069158;28;20784;-71
2021/12/12 10:45:37;;;;;;;3.30;2.90;;;;;;;6.47;53.57;97584.22;5075585;28;20819;-71
2021/12/12 10:48:14;;;;;;;4.80;3.43;;;;;;;6.69;53.57;97595.59;5046081;28;21011;-70
2021/12/12 10:50:52;;;;;;;3.73;2.30;;;;;;;6.61;53.08;97596.22;5061831;28;20423;-69
2021/12/12 10:53:41;;;;;;;3.50;2.63;;;;;;;6.51;53.67;97601.28;5067146;28;20453;-70
2021/12/12 10:56:23;;;;;;;5.53;2.40;;;;;;;6.87;52.63;97596.78;5065445;28;20439;-69
2021/12/12 10:58:53;;;;;;;2.80;2.10;;;;;;;6.94;52.70;97598.91;5073294;28;20424;-69
2021/12/12 11:01:25;;;;;;;4.40;2.70;;;;;;;6.61;53.29;97602.22;5065196;28;20419;-69
2021/12/12 11:03:59;;;;;;;6.50;2.83;;;;;;;6.55;53.18;97594.06;5063457;28;20425;-70
2021/12/12 11:07:01;;;;;;;2.83;2.07;;;;;;;6.90;52.43;97600.91;5070848;28;20519;-67
2021/12/12 11:09:34;;;;;;;4.30;2.70;;;;;;;7.42;51.72;97592.53;5074920;28;20927;-69
2021/12/12 11:12:12;;;;;;;4.23;2.50;;;;;;;7.78;51.53;97586.16;5076226;28;20421;-72
2021/12/12 11:15:30;;;;;;;9.83;3.53;;;;;;;7.52;50.66;97589.09;5074337;28;20880;-68
2021/12/12 11:17:58;;;;;;;6.07;2.97;;;;;;;7.63;50.12;97590.00;5057073;28;20875;-71
2021/12/12 11:20:52;;;;;;;5.90;3.20;;;;;;;6.95;51.29;97582.31;5051562;28;21014;-71
2021/12/12 11:23:22;;;;;;;4.60;2.80;;;;;;;7.07;51.76;97581.34;5038500;28;20795;-70
2021/12/12 11:25:53;;;;;;;2.70;2.50;;;;;;;7.73;51.54;97577.84;5034553;28;20462;-70
2021/12/12 11:28:23;;;;;;;9.20;5.33;;;;;;;8.12;50.77;97579.94;5061208;28;20463;-69
2021/12/12 11:31:12;;;;;;;6.30;2.97;;;;;;;8.09;49.82;97574.97;5072811;28;21043;-70
2021/12/12 11:33:39;;;;;;;8.13;2.90;;;;;;;8.22;49.30;97577.34;5053782;28;20484;-70
2021/12/12 11:36:08;;;;;;;3.53;2.30;;;;;;;8.41;48.78;97582.72;5034737;28;20821;-68
2021/12/12 11:38:37;;;;;;;4.50;2.37;;;;;;;8.42;49.14;97579.16;5050800;28;20418;-69
2021/12/12 11:41:05;;;;;;;2.60;2.17;;;;;;;8.01;49.50;97575.59;5058200;28;20508;-69
2021/12/12 11:43:35;;;;;;;1.97;1.77;;;;;;;8.60;49.11;97582.00;5083547;28;20452;-71
2021/12/12 11:46:29;;;;;;;5.43;2.50;;;;;;;8.66;48.55;97570.22;5062469;28;20468;-71
2021/12/12 11:49:06;;;;;;;3.40;2.27;;;;;;;8.68;49.51;97564.84;5065709;28;20451;-68
2021/12/12 11:51:46;;;;;;;3.60;1.60;;;;;;;8.38;48.83;97567.28;5054612;28;20424;-70
2021/12/12 11:54:23;;;;;;;2.83;2.10;;;;;;;8.56;49.56;97561.50;5058286;28;20770;-70
2021/12/12 11:56:59;;;;;;;3.00;2.40;;;;;;;8.21;50.35;97568.72;5075878;28;20883;-69
2021/12/12 11:59:32;;;;;;;3.50;2.00;;;;;;;8.67;49.02;97558.81;5069483;28;20425;-67
2021/12/12 12:02:09;;;;;;;2.67;1.90;;;;;;;8.84;49.13;97559.97;5074770;28;20831;-70
2021/12/12 12:04:57;;;;;;;3.03;1.90;;;;;;;8.78;48.32;97551.81;5069392;28;20452;-69
2021/12/12 12:07:40;;;;;;;5.20;2.67;;;;;;;8.74;48.19;97552.06;5065482;28;20440;-70
2021/12/12 12:10:24;;;;;;;2.03;1.80;;;;;;;8.85;48.16;97556.38;5072926;28;20462;-70
2021/12/12 12:13:24;;;;;;;5.17;2.60;;;;;;;8.72;48.26;97538.31;5075867;28;20408;-68
2021/12/12 12:15:57;;;;;;;4.13;2.30;;;;;;;8.59;48.20;97541.16;5066700;28;20444;-71
2021/12/12 12:18:51;;;;;;;5.17;3.30;;;;;;;8.91;48.04;97552.41;5053804;28;20448;-72